createdAt,value
2022-12-25T00:01:45.181Z,4.67
2022-12-25T00:04:12.669Z,4.80
2022-12-25T00:06:40.120Z,4.53
2022-12-25T00:09:07.581Z,4.37
2022-12-25T00:11:35.231Z,4.57
2022-12-25T00:14:02.888Z,5.20
2022-12-25T00:16:30.417Z,4.70
2022-12-25T00:18:59.211Z,4.87
2022-12-25T00:21:26.615Z,5.70
2022-12-25T00:23:56.811Z,4.80
2022-12-25T00:26:25.958Z,4.60
2022-12-25T00:28:55.526Z,5.20
2022-12-25T00:31:24.779Z,4.73
2022-12-25T00:33:53.132Z,5.00
2022-12-25T00:36:22.367Z,5.27
2022-12-25T00:38:50.049Z,4.83
2022-12-25T00:41:40.299Z,5.10
2022-12-25T00:44:09.750Z,4.67
2022-12-25T00:46:37.771Z,4.93
2022-12-25T00:49:05.466Z,5.20
2022-12-25T00:51:33.665Z,4.87
2022-12-25T00:54:01.230Z,4.80
2022-12-25T00:56:28.711Z,5.23
2022-12-25T00:58:56.362Z,5.47
2022-12-25T01:01:23.946Z,5.20
2022-12-25T01:03:51.446Z,5.13
2022-12-25T01:06:18.872Z,5.30
2022-12-25T01:09:04.636Z,4.73
2022-12-25T01:11:32.439Z,5.20
2022-12-25T01:14:00.003Z,5.07
2022-12-25T01:16:27.988Z,4.93
2022-12-25T01:18:55.936Z,5.77
2022-12-25T01:21:23.698Z,5.17
2022-12-25T01:23:52.728Z,5.90
2022-12-25T01:26:23.216Z,5.33
2022-12-25T01:28:51.537Z,5.53
2022-12-25T01:31:22.946Z,5.53
2022-12-25T01:33:51.097Z,5.50
2022-12-25T01:36:25.300Z,5.00
2022-12-25T01:38:54.864Z,4.73
2022-12-25T01:41:24.849Z,4.57
2022-12-25T01:44:28.632Z,4.30
2022-12-25T01:46:56.040Z,4.03
2022-12-25T01:49:26.145Z,4.33
2022-12-25T01:52:01.627Z,5.70
2022-12-25T01:54:42.265Z,4.97
2022-12-25T01:57:24.406Z,4.80
2022-12-25T01:59:52.779Z,4.57
2022-12-25T02:02:21.196Z,4.40
2022-12-25T02:05:00.327Z,4.47
2022-12-25T02:07:30.361Z,4.03
2022-12-25T02:09:57.783Z,4.07
2022-12-25T02:12:29.776Z,4.10
2022-12-25T02:15:05.829Z,3.90
2022-12-25T02:17:57.524Z,3.67
2022-12-25T02:20:57.091Z,3.83
2022-12-25T02:23:55.889Z,3.60
2022-12-25T02:27:06.128Z,3.67
2022-12-25T02:29:48.051Z,3.60
2022-12-25T02:32:29.601Z,3.27
2022-12-25T02:35:10.732Z,3.17
2022-12-25T02:38:05.210Z,3.63
2022-12-25T02:40:42.304Z,3.50
2022-12-25T02:43:35.541Z,3.60
2022-12-25T02:46:26.791Z,3.93
2022-12-25T02:49:20.264Z,3.93
2022-12-25T02:52:15.039Z,4.10
2022-12-25T02:55:08.067Z,4.77
2022-12-25T02:58:04.259Z,5.40
2022-12-25T03:00:58.405Z,4.63
2022-12-25T03:03:50.274Z,5.30
2022-12-25T03:06:39.488Z,5.03
2022-12-25T03:09:30.271Z,4.83
2022-12-25T03:12:11.624Z,6.07
2022-12-25T03:14:58.571Z,5.97
2022-12-25T03:17:26.352Z,6.30
2022-12-25T03:20:12.557Z,6.97
2022-12-25T03:23:05.627Z,7.40
2022-12-25T03:25:52.011Z,6.73
2022-12-25T03:28:19.438Z,7.53
2022-12-25T03:31:14.623Z,5.80
2022-12-25T03:34:54.590Z,6.00
2022-12-25T03:38:09.945Z,5.47
2022-12-25T03:41:15.608Z,5.00
2022-12-25T03:44:40.805Z,5.00
2022-12-25T03:47:35.458Z,4.70
2022-12-25T03:50:32.486Z,6.17
2022-12-25T03:53:24.647Z,5.10
2022-12-25T03:56:12.398Z,5.53
2022-12-25T03:59:21.105Z,5.73
2022-12-25T04:02:10.335Z,6.33
2022-12-25T04:04:56.981Z,8.80
2022-12-25T04:07:43.182Z,11.10
2022-12-25T04:10:29.517Z,10.43
2022-12-25T04:13:15.646Z,7.77
2022-12-25T04:16:01.587Z,5.87
2022-12-25T04:18:47.690Z,6.43
2022-12-25T04:21:33.989Z,5.67
2022-12-25T04:24:20.229Z,6.40
2022-12-25T04:27:06.499Z,4.57
2022-12-25T04:29:52.658Z,6.77
2022-12-25T04:32:38.414Z,6.33
2022-12-25T04:35:24.693Z,3.47
2022-12-25T04:37:52.135Z,3.50
2022-12-25T04:40:20.446Z,4.53
2022-12-25T04:42:50.667Z,6.73
2022-12-25T04:45:18.418Z,7.13
2022-12-25T04:47:45.855Z,4.27
2022-12-25T04:50:13.357Z,5.40
2022-12-25T04:52:41.937Z,10.20
2022-12-25T04:55:11.174Z,8.83
2022-12-25T04:57:38.907Z,7.83
2022-12-25T05:00:07.881Z,6.20
2022-12-25T05:02:35.581Z,6.10
2022-12-25T05:05:03.424Z,4.83
2022-12-25T05:07:30.825Z,4.00
2022-12-25T05:09:58.609Z,4.23
2022-12-25T05:12:26.081Z,4.27
2022-12-25T05:14:53.508Z,5.90
2022-12-25T05:17:21.005Z,8.83
2022-12-25T05:19:48.548Z,5.23
2022-12-25T05:22:16.032Z,5.80
2022-12-25T05:24:43.518Z,5.60
2022-12-25T05:27:10.900Z,5.50
2022-12-25T05:29:38.330Z,5.40
2022-12-25T05:32:05.988Z,5.43
2022-12-25T05:34:33.403Z,6.03
2022-12-25T05:37:00.955Z,5.97
2022-12-25T05:39:28.427Z,5.87
2022-12-25T05:41:56.014Z,6.30
2022-12-25T05:44:23.916Z,5.40
2022-12-25T05:46:51.361Z,7.80
2022-12-25T05:49:18.823Z,10.90
2022-12-25T05:51:46.231Z,8.70
2022-12-25T05:54:13.623Z,13.13
2022-12-25T05:56:41.040Z,16.27
2022-12-25T05:59:08.446Z,21.37
2022-12-25T06:01:35.994Z,7.03
2022-12-25T06:04:08.408Z,5.80
2022-12-25T06:06:39.446Z,5.57
2022-12-25T06:09:06.981Z,6.37
2022-12-25T06:11:34.426Z,6.13
2022-12-25T06:14:01.951Z,6.40
2022-12-25T06:16:35.570Z,7.07
2022-12-25T06:19:05.307Z,6.33
2022-12-25T06:21:32.988Z,11.63
2022-12-25T06:24:01.644Z,8.90
2022-12-25T06:26:29.312Z,9.73
2022-12-25T06:28:56.754Z,7.90
2022-12-25T06:31:25.013Z,7.33
2022-12-25T06:33:52.485Z,9.10
2022-12-25T06:36:26.807Z,7.07
2022-12-25T06:38:54.657Z,7.27
2022-12-25T06:41:25.959Z,7.17
2022-12-25T06:43:59.545Z,7.00
2022-12-25T06:46:29.597Z,6.70
2022-12-25T06:48:59.145Z,7.30
2022-12-25T06:51:32.225Z,7.37
2022-12-25T06:54:03.225Z,7.50
2022-12-25T06:56:31.650Z,6.50
2022-12-25T06:59:02.866Z,8.63
2022-12-25T07:01:34.524Z,19.77
2022-12-25T07:04:08.035Z,7.83
2022-12-25T07:06:35.431Z,6.80
2022-12-25T07:09:03.441Z,7.10
2022-12-25T07:11:31.192Z,7.20
2022-12-25T07:13:58.609Z,7.17
2022-12-25T07:16:26.097Z,6.67
2022-12-25T07:18:53.572Z,6.73
2022-12-25T07:21:21.929Z,8.47
2022-12-25T07:23:50.409Z,7.97
2022-12-25T07:26:18.234Z,7.00
2022-12-25T07:28:45.807Z,7.00
2022-12-25T07:31:16.846Z,6.63
2022-12-25T07:33:45.362Z,7.17
2022-12-25T07:36:14.493Z,7.03
2022-12-25T07:38:42.962Z,8.30
2022-12-25T07:41:13.235Z,9.33
2022-12-25T07:43:41.133Z,8.07
2022-12-25T07:46:09.679Z,8.47
2022-12-25T07:48:37.808Z,9.10
2022-12-25T07:51:08.740Z,7.53
2022-12-25T07:53:36.870Z,7.67
2022-12-25T07:56:17.291Z,9.40
2022-12-25T07:58:45.691Z,10.17
2022-12-25T08:01:27.184Z,8.63
2022-12-25T08:03:58.105Z,9.63
2022-12-25T08:06:30.852Z,9.40
2022-12-25T08:09:06.349Z,9.40
2022-12-25T08:11:33.848Z,7.57
2022-12-25T08:14:01.365Z,8.93
2022-12-25T08:16:28.855Z,12.77
2022-12-25T08:18:56.382Z,11.70
2022-12-25T08:21:23.842Z,15.80
2022-12-25T08:23:51.322Z,16.80
2022-12-25T08:26:23.579Z,14.63
2022-12-25T08:28:51.940Z,13.57
2022-12-25T08:31:27.212Z,20.40
2022-12-25T08:33:58.317Z,19.97
2022-12-25T08:36:26.307Z,12.20
2022-12-25T08:39:00.294Z,15.03
2022-12-25T08:41:30.300Z,17.70
2022-12-25T08:43:57.887Z,17.37
2022-12-25T08:46:25.529Z,16.60
2022-12-25T08:48:53.151Z,18.63
2022-12-25T08:51:22.894Z,20.00
2022-12-25T08:53:53.986Z,19.60
2022-12-25T08:56:21.464Z,18.03
2022-12-25T08:58:48.898Z,16.60
2022-12-25T09:01:16.473Z,14.60
2022-12-25T09:03:44.233Z,16.73
2022-12-25T09:06:16.904Z,17.07
2022-12-25T09:08:49.135Z,18.67
2022-12-25T09:11:19.538Z,20.43
2022-12-25T09:13:47.597Z,19.97
2022-12-25T09:16:20.442Z,24.90
2022-12-25T09:18:48.084Z,29.80
2022-12-25T09:21:16.758Z,43.43
2022-12-25T09:23:44.246Z,44.40
2022-12-25T09:26:15.672Z,51.53
2022-12-25T09:28:50.323Z,56.07
2022-12-25T09:31:18.936Z,34.47
2022-12-25T09:33:46.414Z,42.47
2022-12-25T09:36:13.956Z,37.90
2022-12-25T09:38:41.499Z,26.77
2022-12-25T09:41:46.556Z,22.17
2022-12-25T09:44:24.359Z,18.17
2022-12-25T09:46:57.173Z,16.73
2022-12-25T09:49:36.381Z,12.87
2022-12-25T09:52:45.927Z,10.80
2022-12-25T09:55:21.230Z,11.40
2022-12-25T09:57:54.960Z,11.70
2022-12-25T10:00:29.468Z,8.17
2022-12-25T10:03:11.400Z,8.97
2022-12-25T10:06:15.582Z,7.80
2022-12-25T10:09:13.571Z,8.13
2022-12-25T10:12:24.152Z,8.60
2022-12-25T10:15:04.339Z,8.53
2022-12-25T10:17:44.166Z,10.00
2022-12-25T10:20:48.343Z,7.97
2022-12-25T10:23:24.595Z,8.00
2022-12-25T10:25:54.144Z,8.47
2022-12-25T10:28:40.253Z,9.40
2022-12-25T10:31:26.836Z,8.70
2022-12-25T10:33:54.660Z,9.20
2022-12-25T10:36:27.492Z,11.43
2022-12-25T10:38:56.613Z,8.93
2022-12-25T10:41:41.006Z,8.50
2022-12-25T10:44:24.742Z,9.17
2022-12-25T10:47:01.468Z,9.87
2022-12-25T10:49:38.979Z,9.23
2022-12-25T10:52:28.736Z,10.50
2022-12-25T10:54:56.440Z,11.87
2022-12-25T10:57:26.724Z,10.67
2022-12-25T10:59:57.746Z,11.50
2022-12-25T11:02:30.320Z,11.40
2022-12-25T11:05:32.227Z,11.60
2022-12-25T11:08:02.367Z,10.70
2022-12-25T11:10:44.253Z,11.40
2022-12-25T11:13:49.328Z,10.03
2022-12-25T11:16:38.241Z,11.30
2022-12-25T11:19:30.178Z,9.20
2022-12-25T11:22:01.679Z,10.73
2022-12-25T11:24:32.542Z,10.10
2022-12-25T11:27:05.033Z,10.77
2022-12-25T11:29:48.018Z,9.17
2022-12-25T11:32:39.681Z,9.40
2022-12-25T11:35:18.453Z,9.50
2022-12-25T11:37:50.417Z,9.20
2022-12-25T11:40:27.271Z,8.47
2022-12-25T11:43:09.838Z,9.33
2022-12-25T11:45:43.726Z,8.00
2022-12-25T11:48:46.329Z,5.57
2022-12-25T11:51:15.573Z,7.23
2022-12-25T11:53:56.616Z,6.53
2022-12-25T11:56:28.755Z,5.30
2022-12-25T11:59:03.836Z,5.53
2022-12-25T12:01:38.681Z,5.60
2022-12-25T12:04:29.484Z,5.40
2022-12-25T12:07:24.772Z,5.50
2022-12-25T12:09:58.732Z,6.07
2022-12-25T12:12:57.850Z,5.87
2022-12-25T12:15:45.545Z,4.63
2022-12-25T12:18:28.186Z,5.83
2022-12-25T12:21:16.811Z,4.97
2022-12-25T12:24:21.856Z,4.77
2022-12-25T12:27:07.154Z,7.33
2022-12-25T12:29:45.111Z,5.23
2022-12-25T12:32:38.632Z,6.80
2022-12-25T12:35:16.281Z,7.80
2022-12-25T12:37:49.536Z,7.67
2022-12-25T12:40:45.359Z,6.47
2022-12-25T12:43:47.162Z,11.70
2022-12-25T12:46:32.078Z,6.13
2022-12-25T12:49:22.640Z,5.60
2022-12-25T12:51:51.084Z,6.60
2022-12-25T12:54:26.192Z,9.40
2022-12-25T12:57:06.143Z,7.13
2022-12-25T12:59:47.150Z,5.30
2022-12-25T13:03:14.666Z,5.63
2022-12-25T13:05:56.020Z,6.63
2022-12-25T13:08:45.279Z,11.83
2022-12-25T13:11:36.473Z,13.47
2022-12-25T13:14:05.388Z,5.43
2022-12-25T13:16:40.594Z,6.57
2022-12-25T13:19:23.475Z,6.13
2022-12-25T13:22:01.337Z,4.90
2022-12-25T13:24:33.478Z,4.27
2022-12-25T13:27:01.803Z,4.90
2022-12-25T13:29:39.127Z,5.20
2022-12-25T13:32:20.528Z,5.60
2022-12-25T13:34:50.176Z,6.37
2022-12-25T13:37:22.017Z,6.20
2022-12-25T13:40:28.503Z,5.50
2022-12-25T13:43:01.356Z,5.33
2022-12-25T13:45:31.129Z,4.90
2022-12-25T13:48:10.258Z,5.03
2022-12-25T13:50:37.974Z,5.40
2022-12-25T13:53:17.694Z,6.70
2022-12-25T13:55:52.732Z,7.90
2022-12-25T13:58:29.335Z,9.73
2022-12-25T14:00:59.381Z,9.13
2022-12-25T14:03:42.921Z,8.67
2022-12-25T14:06:33.193Z,8.57
2022-12-25T14:09:00.920Z,7.10
2022-12-25T14:11:31.455Z,6.37
2022-12-25T14:14:04.444Z,5.57
2022-12-25T14:16:32.068Z,5.87
2022-12-25T14:19:02.639Z,6.90
2022-12-25T14:21:41.962Z,8.60
2022-12-25T14:24:16.960Z,8.97
2022-12-25T14:26:44.659Z,5.87
2022-12-25T14:29:19.093Z,5.53
2022-12-25T14:31:48.442Z,5.90
2022-12-25T14:34:21.589Z,6.13
2022-12-25T14:36:51.014Z,6.40
2022-12-25T14:39:37.309Z,6.67
2022-12-25T14:42:26.572Z,6.00
2022-12-25T14:45:31.009Z,8.80
2022-12-25T14:48:04.346Z,8.67
2022-12-25T14:50:39.667Z,9.67
2022-12-25T14:53:21.560Z,9.63
2022-12-25T14:55:52.495Z,8.97
2022-12-25T14:58:27.647Z,9.20
2022-12-25T15:01:01.360Z,10.80
2022-12-25T15:03:37.092Z,10.23
2022-12-25T15:06:11.644Z,9.47
2022-12-25T15:08:40.823Z,8.30
2022-12-25T15:11:09.609Z,8.27
2022-12-25T15:13:37.052Z,9.03
2022-12-25T15:16:14.768Z,8.20
2022-12-25T15:18:45.132Z,9.47
2022-12-25T15:21:39.170Z,10.67
2022-12-25T15:24:13.506Z,9.30
2022-12-25T15:26:41.614Z,8.50
2022-12-25T15:29:09.487Z,9.00
2022-12-25T15:31:39.685Z,8.53
2022-12-25T15:34:21.085Z,11.80
2022-12-25T15:36:49.133Z,12.57
2022-12-25T15:39:16.519Z,12.17
2022-12-25T15:42:02.497Z,12.93
2022-12-25T15:44:30.413Z,11.67
2022-12-25T15:46:58.056Z,12.20
2022-12-25T15:49:25.438Z,11.63
2022-12-25T15:51:52.830Z,10.87
2022-12-25T15:54:20.515Z,11.97
2022-12-25T15:56:57.456Z,12.47
2022-12-25T15:59:25.588Z,11.50
2022-12-25T16:01:57.089Z,12.57
2022-12-25T16:04:26.711Z,13.07
2022-12-25T16:06:56.371Z,12.33
2022-12-25T16:09:24.077Z,12.00
2022-12-25T16:11:51.542Z,12.63
2022-12-25T16:14:19.752Z,13.87
2022-12-25T16:16:47.212Z,13.87
2022-12-25T16:19:14.656Z,14.57
2022-12-25T16:21:45.576Z,13.53
2022-12-25T16:24:14.252Z,14.97
2022-12-25T16:26:43.383Z,13.60
2022-12-25T16:29:11.466Z,15.27
2022-12-25T16:31:40.156Z,15.77
2022-12-25T16:34:08.957Z,15.53
2022-12-25T16:36:36.916Z,15.67
2022-12-25T16:39:05.752Z,21.23
2022-12-25T16:41:33.491Z,31.30
2022-12-25T16:44:09.478Z,48.20
2022-12-25T16:46:38.234Z,48.40
2022-12-25T16:49:05.990Z,48.67
2022-12-25T16:51:33.427Z,29.40
2022-12-25T16:54:01.065Z,17.63
2022-12-25T16:56:30.126Z,19.33
2022-12-25T16:58:58.835Z,24.60
2022-12-25T17:01:26.737Z,16.73
2022-12-25T17:03:54.303Z,14.97
2022-12-25T17:06:28.508Z,14.33
2022-12-25T17:09:02.400Z,14.07
2022-12-25T17:11:30.879Z,14.87
2022-12-25T17:14:02.261Z,31.90
2022-12-25T17:16:36.318Z,22.87
2022-12-25T17:19:11.307Z,22.07
2022-12-25T17:21:38.916Z,25.47
2022-12-25T17:24:07.375Z,51.83
2022-12-25T17:26:34.966Z,24.27
2022-12-25T17:29:02.729Z,37.73
2022-12-25T17:31:30.596Z,26.67
2022-12-25T17:34:01.619Z,37.87
2022-12-25T17:36:29.697Z,55.87
2022-12-25T17:38:59.922Z,47.93
2022-12-25T17:41:27.929Z,29.80
2022-12-25T17:43:55.412Z,29.50
2022-12-25T17:46:29.349Z,28.33
2022-12-25T17:48:59.462Z,30.37
2022-12-25T17:51:29.513Z,24.43
2022-12-25T17:54:03.292Z,36.10
2022-12-25T17:56:31.842Z,44.00
2022-12-25T17:59:03.703Z,37.67
2022-12-25T18:01:31.282Z,40.20
2022-12-25T18:04:00.749Z,25.30
2022-12-25T18:06:29.745Z,22.93
2022-12-25T18:08:59.042Z,21.50
2022-12-25T18:11:29.457Z,20.20
2022-12-25T18:13:58.430Z,18.27
2022-12-25T18:16:27.358Z,20.63
2022-12-25T18:18:55.181Z,21.77
2022-12-25T18:21:23.608Z,29.40
2022-12-25T18:23:51.471Z,22.10
2022-12-25T18:26:20.799Z,21.67
2022-12-25T18:28:50.011Z,20.83
2022-12-25T18:31:27.335Z,21.30
2022-12-25T18:33:57.337Z,24.30
2022-12-25T18:36:27.895Z,19.70
2022-12-25T18:38:56.242Z,19.90
2022-12-25T18:41:24.421Z,22.43
2022-12-25T18:43:55.689Z,32.57
2022-12-25T18:46:25.461Z,32.50
2022-12-25T18:48:55.728Z,28.03
2022-12-25T18:51:23.637Z,21.13
2022-12-25T18:53:51.622Z,20.07
2022-12-25T18:56:19.239Z,18.90
2022-12-25T18:58:48.177Z,15.93
2022-12-25T19:01:18.501Z,20.30
2022-12-25T19:03:46.552Z,16.47
2022-12-25T19:06:25.977Z,18.57
2022-12-25T19:08:54.894Z,16.63
2022-12-25T19:11:23.078Z,15.60
2022-12-25T19:13:50.559Z,17.63
2022-12-25T19:16:18.411Z,15.83
2022-12-25T19:18:46.081Z,15.67
2022-12-25T19:21:13.705Z,16.17
2022-12-25T19:23:41.222Z,16.07
2022-12-25T19:26:09.878Z,16.87
2022-12-25T19:28:38.496Z,15.30
2022-12-25T19:31:08.130Z,16.97
2022-12-25T19:33:38.342Z,14.37
2022-12-25T19:36:11.540Z,13.50
2022-12-25T19:38:39.283Z,14.60
2022-12-25T19:41:16.749Z,13.27
2022-12-25T19:43:47.864Z,15.10
2022-12-25T19:46:19.926Z,17.87
2022-12-25T19:48:47.879Z,19.40
2022-12-25T19:51:27.970Z,15.17
2022-12-25T19:53:59.079Z,15.00
2022-12-25T19:56:29.340Z,17.20
2022-12-25T19:58:58.014Z,17.20
2022-12-25T20:01:30.120Z,16.87
2022-12-25T20:03:58.132Z,16.43
2022-12-25T20:06:32.711Z,15.47
2022-12-25T20:09:11.656Z,15.70
2022-12-25T20:11:39.912Z,12.90
2022-12-25T20:14:08.873Z,12.47
2022-12-25T20:16:39.940Z,12.03
2022-12-25T20:19:07.751Z,11.20
2022-12-25T20:21:35.208Z,12.17
2022-12-25T20:24:03.409Z,12.77
2022-12-25T20:26:32.241Z,12.30
2022-12-25T20:29:00.150Z,13.10
2022-12-25T20:31:33.836Z,13.03
2022-12-25T20:34:07.993Z,11.73
2022-12-25T20:36:37.570Z,11.83
2022-12-25T20:39:11.825Z,15.70
2022-12-25T20:41:40.528Z,22.57
2022-12-25T20:44:10.441Z,12.57
2022-12-25T20:46:38.249Z,11.97
2022-12-25T20:49:06.092Z,12.20
2022-12-25T20:51:33.709Z,12.00
2022-12-25T20:54:01.734Z,9.53
2022-12-25T20:56:30.396Z,9.27
2022-12-25T20:58:59.904Z,9.80
2022-12-25T21:01:30.346Z,9.47
2022-12-25T21:03:58.831Z,10.43
2022-12-25T21:06:26.693Z,10.07
2022-12-25T21:08:54.322Z,10.83
2022-12-25T21:11:22.125Z,10.17
2022-12-25T21:13:50.297Z,10.83
2022-12-25T21:16:22.350Z,10.17
2022-12-25T21:18:53.302Z,10.63
2022-12-25T21:21:21.860Z,11.07
2022-12-25T21:23:49.380Z,9.30
2022-12-25T21:26:20.502Z,10.63
2022-12-25T21:28:51.025Z,9.60
2022-12-25T21:31:19.068Z,10.20
2022-12-25T21:33:53.120Z,9.40
2022-12-25T21:36:29.229Z,9.70
2022-12-25T21:39:08.231Z,10.27
2022-12-25T21:41:38.717Z,10.90
2022-12-25T21:44:07.606Z,10.60
2022-12-25T21:46:35.327Z,10.00
2022-12-25T21:49:03.370Z,11.40
2022-12-25T21:51:52.208Z,10.30
2022-12-25T21:54:22.280Z,10.77
2022-12-25T21:56:50.471Z,10.13
2022-12-25T21:59:22.434Z,10.37
2022-12-25T22:01:52.141Z,12.40
2022-12-25T22:04:23.084Z,45.93
2022-12-25T22:07:09.381Z,43.87
2022-12-25T22:09:37.418Z,36.80
2022-12-25T22:12:26.169Z,27.63
2022-12-25T22:15:03.087Z,38.10
2022-12-25T22:17:53.426Z,32.60
2022-12-25T22:20:36.230Z,13.50
2022-12-25T22:23:04.878Z,18.43
2022-12-25T22:25:32.383Z,10.90
2022-12-25T22:28:00.404Z,19.53
2022-12-25T22:30:29.754Z,13.40
2022-12-25T22:32:57.781Z,43.83
2022-12-25T22:35:25.536Z,11.20
2022-12-25T22:37:54.283Z,12.93
2022-12-25T22:40:22.005Z,12.03
2022-12-25T22:42:49.490Z,31.77
2022-12-25T22:45:17.166Z,11.87
2022-12-25T22:47:44.688Z,9.00
2022-12-25T22:50:17.226Z,10.63
2022-12-25T22:52:45.911Z,21.50
2022-12-25T22:55:18.488Z,9.27
2022-12-25T22:57:46.107Z,9.23
2022-12-25T23:00:14.444Z,9.73
2022-12-25T23:02:42.069Z,10.80
2022-12-25T23:05:09.911Z,9.97
2022-12-25T23:07:37.600Z,10.30
2022-12-25T23:10:07.034Z,11.43
2022-12-25T23:12:53.242Z,10.70
2022-12-25T23:15:21.414Z,10.17
2022-12-25T23:18:07.512Z,10.33
2022-12-25T23:21:06.206Z,10.63
2022-12-25T23:23:52.353Z,10.27
2022-12-25T23:26:21.934Z,10.70
2022-12-25T23:29:07.911Z,9.50
2022-12-25T23:31:41.814Z,9.80
2022-12-25T23:34:10.240Z,10.20
2022-12-25T23:36:37.673Z,9.63
2022-12-25T23:39:10.040Z,9.23
2022-12-25T23:41:40.104Z,8.90
2022-12-25T23:44:09.735Z,9.97
2022-12-25T23:46:37.699Z,17.73
2022-12-25T23:49:05.558Z,14.33
2022-12-25T23:51:35.485Z,11.50
2022-12-25T23:54:05.479Z,11.77
2022-12-25T23:56:33.301Z,10.23
2022-12-25T23:59:00.947Z,10.47
